createdAt,value
2023-01-11T00:01:31.457Z,13.80
2023-01-11T00:05:56.666Z,12.80
2023-01-11T00:10:04.875Z,15.85
2023-01-11T00:14:08.732Z,19.00
2023-01-11T00:18:12.964Z,15.80
2023-01-11T00:22:16.086Z,13.27
2023-01-11T00:26:23.936Z,14.93
2023-01-11T00:30:26.876Z,21.33
2023-01-11T00:34:29.899Z,14.75
2023-01-11T00:38:46.986Z,13.73
2023-01-11T00:43:13.995Z,18.58
2023-01-11T00:47:35.006Z,15.18
2023-01-11T00:51:37.993Z,16.70
2023-01-11T00:55:41.126Z,13.10
2023-01-11T00:59:45.411Z,20.15
2023-01-11T01:03:49.461Z,13.68
2023-01-11T01:07:54.361Z,17.73
2023-01-11T01:11:57.445Z,19.88
2023-01-11T01:16:06.217Z,17.05
2023-01-11T01:20:10.154Z,18.70
2023-01-11T01:24:13.355Z,14.35
2023-01-11T01:28:16.815Z,13.10
2023-01-11T01:32:21.193Z,12.18
2023-01-11T01:36:25.057Z,21.23
2023-01-11T01:40:32.335Z,13.38
2023-01-11T01:44:56.814Z,13.93
2023-01-11T01:49:06.050Z,14.77
2023-01-11T01:53:11.194Z,19.42
2023-01-11T01:57:17.798Z,13.02
2023-01-11T02:01:38.765Z,12.20
2023-01-11T02:05:43.880Z,14.98
2023-01-11T02:09:53.307Z,15.38
2023-01-11T02:13:57.648Z,16.10
2023-01-11T02:18:04.965Z,12.55
2023-01-11T02:22:55.927Z,11.52
2023-01-11T02:27:14.132Z,16.52
2023-01-11T02:31:29.986Z,13.43
2023-01-11T02:35:38.897Z,14.05
2023-01-11T02:39:51.960Z,10.63
2023-01-11T02:44:21.569Z,16.45
2023-01-11T02:48:32.135Z,9.48
2023-01-11T02:52:42.277Z,12.98
2023-01-11T02:56:49.200Z,13.07
2023-01-11T03:00:52.547Z,14.75
2023-01-11T03:05:02.984Z,18.42
2023-01-11T03:09:16.332Z,9.13
2023-01-11T03:13:25.981Z,14.40
2023-01-11T03:17:40.627Z,10.43
2023-01-11T03:22:01.442Z,11.32
2023-01-11T03:26:17.047Z,12.35
2023-01-11T03:30:25.809Z,15.25
2023-01-11T03:34:33.456Z,8.45
2023-01-11T03:38:42.831Z,14.13
2023-01-11T03:43:01.938Z,15.07
2023-01-11T03:47:09.121Z,12.18
2023-01-11T03:51:14.274Z,11.68
2023-01-11T03:55:24.470Z,11.07
2023-01-11T04:03:32.694Z,13.95
2023-01-11T04:07:36.118Z,13.25
2023-01-11T04:11:40.902Z,10.82
2023-01-11T04:15:43.925Z,10.57
2023-01-11T04:19:47.633Z,9.23
2023-01-11T04:23:50.737Z,12.80
2023-01-11T04:27:56.577Z,13.40
2023-01-11T04:32:00.503Z,9.98
2023-01-11T04:36:06.988Z,9.90
2023-01-11T04:40:12.641Z,13.60
2023-01-11T04:44:18.746Z,12.57
2023-01-11T04:48:21.467Z,10.00
2023-01-11T04:52:30.653Z,10.73
2023-01-11T04:56:39.007Z,11.05
2023-01-11T05:00:55.173Z,6.85
2023-01-11T05:04:59.865Z,11.20
2023-01-11T05:09:03.821Z,7.57
2023-01-11T05:13:06.598Z,8.13
2023-01-11T05:17:21.615Z,7.78
2023-01-11T05:21:30.047Z,7.43
2023-01-11T05:25:37.875Z,7.95
2023-01-11T05:29:44.616Z,11.98
2023-01-11T05:33:50.112Z,10.48
2023-01-11T05:37:52.780Z,11.20
2023-01-11T05:41:56.171Z,8.60
2023-01-11T05:46:01.686Z,9.88
2023-01-11T05:50:07.827Z,10.55
2023-01-11T05:54:13.949Z,12.18
2023-01-11T05:58:19.593Z,16.20
2023-01-11T06:02:24.832Z,14.68
2023-01-11T06:06:31.654Z,15.20
2023-01-11T06:10:36.203Z,11.20
2023-01-11T06:14:39.601Z,9.57
2023-01-11T06:18:45.680Z,9.70
2023-01-11T06:22:52.012Z,12.40
2023-01-11T06:26:56.335Z,18.70
2023-01-11T06:31:02.404Z,11.18
2023-01-11T06:35:06.858Z,16.35
2023-01-11T06:39:12.495Z,10.05
2023-01-11T06:43:17.160Z,10.65
2023-01-11T06:47:19.936Z,11.75
2023-01-11T06:51:23.868Z,10.52
2023-01-11T06:55:32.808Z,13.85
2023-01-11T06:59:39.711Z,11.55
2023-01-11T07:03:49.666Z,12.50
2023-01-11T07:07:53.078Z,18.98
2023-01-11T07:12:05.312Z,14.40
2023-01-11T07:16:13.386Z,13.90
2023-01-11T07:20:25.361Z,8.25
2023-01-11T07:24:29.380Z,11.07
2023-01-11T07:28:34.429Z,9.57
2023-01-11T07:32:40.318Z,7.60
2023-01-11T07:36:44.929Z,8.93
2023-01-11T07:40:47.844Z,9.57
2023-01-11T07:44:52.508Z,11.65
2023-01-11T07:48:55.402Z,10.57
2023-01-11T07:53:00.671Z,12.70
2023-01-11T07:57:03.546Z,11.60
2023-01-11T08:01:08.060Z,13.30
2023-01-11T08:05:13.230Z,10.30
2023-01-11T08:09:16.092Z,12.30
2023-01-11T08:13:36.607Z,11.70
2023-01-11T08:17:44.306Z,12.15
2023-01-11T08:21:47.005Z,10.90
2023-01-11T08:25:49.703Z,11.52
2023-01-11T08:29:52.495Z,10.05
2023-01-11T08:33:57.320Z,12.38
2023-01-11T08:38:07.096Z,13.52
2023-01-11T08:42:11.072Z,15.02
2023-01-11T08:50:22.923Z,12.20
2023-01-11T08:54:26.711Z,10.32
2023-01-11T08:58:39.952Z,9.63
2023-01-11T09:02:49.228Z,4.00
2023-01-11T09:06:55.731Z,6.32
2023-01-11T09:11:31.151Z,8.38
2023-01-11T09:15:38.586Z,1.88
2023-01-11T09:19:44.472Z,3.70
2023-01-11T09:23:52.681Z,1.27
2023-01-11T09:27:56.648Z,2.97
2023-01-11T09:36:15.618Z,3.30
2023-01-11T09:40:24.297Z,3.58
2023-01-11T09:44:29.921Z,3.75
2023-01-11T09:48:37.389Z,5.15
2023-01-11T09:52:43.939Z,2.97
2023-01-11T10:06:33.136Z,2.40
2023-01-11T10:21:32.297Z,3.55
2023-01-11T10:30:37.220Z,3.88
2023-01-11T10:35:18.026Z,3.90
2023-01-11T10:40:01.453Z,2.72
2023-01-11T10:44:31.923Z,3.35
2023-01-11T10:48:50.857Z,2.75
2023-01-11T10:53:36.845Z,1.73
2023-01-11T10:58:01.526Z,1.38
2023-01-11T11:02:37.072Z,1.13
2023-01-11T11:06:52.329Z,5.28
2023-01-11T11:11:16.294Z,1.23
2023-01-11T11:15:40.690Z,1.70
2023-01-11T11:19:54.277Z,3.65
2023-01-11T11:24:19.193Z,2.20
2023-01-11T11:28:34.953Z,2.22
2023-01-11T11:37:59.732Z,2.20
2023-01-11T11:42:22.379Z,4.10
2023-01-11T11:46:32.295Z,3.72
2023-01-11T11:50:45.753Z,5.50
2023-01-11T11:55:00.982Z,4.18
2023-01-11T11:59:21.816Z,6.97
2023-01-11T12:03:40.441Z,5.43
2023-01-11T12:08:11.907Z,2.55
2023-01-11T12:12:30.926Z,5.95
2023-01-11T12:17:09.653Z,3.45
2023-01-11T12:21:58.068Z,5.63
2023-01-11T12:31:30.199Z,6.30
2023-01-11T12:41:43.361Z,6.93
2023-01-11T12:46:03.587Z,10.27
2023-01-11T13:00:12.744Z,10.63
2023-01-11T13:04:54.718Z,10.00
2023-01-11T13:09:01.790Z,9.95
2023-01-11T13:13:09.341Z,10.65
2023-01-11T13:17:21.578Z,8.85
2023-01-11T13:21:31.646Z,17.60
2023-01-11T13:25:36.537Z,9.45
2023-01-11T13:29:41.831Z,10.43
2023-01-11T13:33:48.991Z,15.10
2023-01-11T13:37:56.972Z,7.78
2023-01-11T13:42:03.503Z,9.80
2023-01-11T13:46:11.592Z,17.67
2023-01-11T13:50:20.427Z,9.55
2023-01-11T13:54:27.031Z,10.40
2023-01-11T13:58:36.799Z,10.20
2023-01-11T14:02:43.929Z,10.07
2023-01-11T14:07:02.449Z,11.25
2023-01-11T14:11:09.901Z,13.68
2023-01-11T14:15:20.834Z,11.80
2023-01-11T14:19:26.053Z,16.13
2023-01-11T14:23:36.970Z,12.98
2023-01-11T14:27:51.907Z,7.85
2023-01-11T14:32:12.839Z,15.27
2023-01-11T14:36:31.425Z,10.48
2023-01-11T14:40:43.209Z,12.27
2023-01-11T14:45:00.279Z,17.75
2023-01-11T14:49:12.729Z,18.58
2023-01-11T14:53:22.966Z,13.88
2023-01-11T14:57:42.580Z,10.20
2023-01-11T15:02:33.133Z,11.05
2023-01-11T15:06:53.342Z,13.55
2023-01-11T15:11:00.235Z,13.90
2023-01-11T15:15:07.789Z,12.60
2023-01-11T15:19:23.847Z,14.57
2023-01-11T15:23:27.101Z,13.27
2023-01-11T15:27:34.326Z,15.77
2023-01-11T15:31:50.634Z,12.43
2023-01-11T15:36:04.208Z,8.68
2023-01-11T15:40:15.839Z,6.30
2023-01-11T15:44:36.711Z,12.07
2023-01-11T15:48:54.199Z,8.10
2023-01-11T15:53:21.496Z,10.77
2023-01-11T15:57:46.452Z,9.23
2023-01-11T16:02:19.069Z,8.68
2023-01-11T16:06:29.233Z,11.68
2023-01-11T16:10:52.132Z,18.75
2023-01-11T16:19:15.610Z,14.73
2023-01-11T16:23:22.089Z,13.15
2023-01-11T16:27:27.091Z,15.13
2023-01-11T16:31:55.821Z,11.25
2023-01-11T16:36:06.767Z,12.80
2023-01-11T16:40:14.006Z,12.90
2023-01-11T16:44:24.275Z,13.57
2023-01-11T16:48:30.100Z,10.80
2023-01-11T16:52:49.921Z,14.68
2023-01-11T16:56:53.438Z,6.53
2023-01-11T17:01:00.963Z,5.68
2023-01-11T17:05:19.112Z,9.18
2023-01-11T17:09:22.670Z,11.00
2023-01-11T17:13:54.360Z,7.50
2023-01-11T17:17:58.399Z,10.95
2023-01-11T17:22:05.503Z,7.60
2023-01-11T17:26:14.449Z,6.40
2023-01-11T17:30:20.258Z,19.70
2023-01-11T17:34:27.505Z,10.75
2023-01-11T17:38:33.099Z,29.83
2023-01-11T17:42:54.620Z,21.45
2023-01-11T17:46:57.594Z,18.25
2023-01-11T17:51:02.195Z,20.95
2023-01-11T17:55:15.672Z,26.45
2023-01-11T17:59:21.948Z,18.90
2023-01-11T18:03:24.893Z,16.52
2023-01-11T18:07:27.680Z,18.67
2023-01-11T18:11:33.969Z,2.90
2023-01-11T18:15:38.570Z,16.73
2023-01-11T18:19:43.479Z,14.18
2023-01-11T18:23:46.748Z,12.45
2023-01-11T18:27:51.858Z,9.40
2023-01-11T18:31:54.729Z,16.92
2023-01-11T18:35:59.872Z,11.65
2023-01-11T18:40:03.400Z,14.63
2023-01-11T18:44:09.187Z,14.25
2023-01-11T18:48:13.179Z,19.88
2023-01-11T18:52:17.426Z,12.45
2023-01-11T18:56:20.238Z,16.08
2023-01-11T19:00:25.001Z,15.60
2023-01-11T19:04:27.971Z,16.45
2023-01-11T19:08:32.422Z,16.25
2023-01-11T19:12:35.424Z,16.45
2023-01-11T19:16:39.831Z,12.55
2023-01-11T19:20:42.898Z,14.27
2023-01-11T19:24:45.710Z,18.52
2023-01-11T19:28:48.815Z,18.08
2023-01-11T19:32:54.488Z,25.25
2023-01-11T19:36:57.167Z,33.15
2023-01-11T19:41:04.964Z,19.85
2023-01-11T19:45:08.880Z,16.08
2023-01-11T19:49:15.684Z,17.85
2023-01-11T19:53:18.469Z,13.55
2023-01-11T19:57:21.772Z,22.13
2023-01-11T20:01:24.928Z,18.02
2023-01-11T20:05:33.736Z,15.55
2023-01-11T20:09:38.102Z,21.13
2023-01-11T20:13:41.742Z,16.23
2023-01-11T20:17:44.791Z,14.07
2023-01-11T20:21:49.443Z,17.42
2023-01-11T20:25:52.543Z,18.50
2023-01-11T20:29:56.548Z,16.10
2023-01-11T20:34:00.146Z,19.73
2023-01-11T20:38:04.893Z,18.40
2023-01-11T20:42:08.950Z,18.00
2023-01-11T20:46:11.941Z,22.45
2023-01-11T20:50:14.681Z,15.05
2023-01-11T20:54:18.938Z,10.02
2023-01-11T20:58:21.934Z,16.40
2023-01-11T21:02:24.767Z,15.43
2023-01-11T21:06:30.942Z,18.05
2023-01-11T21:10:35.102Z,12.60
2023-01-11T21:18:43.488Z,21.38
2023-01-11T21:22:48.261Z,18.02
2023-01-11T21:26:52.493Z,9.15
2023-01-11T21:31:02.139Z,11.32
2023-01-11T21:35:14.098Z,23.10
2023-01-11T21:39:18.108Z,15.15
2023-01-11T21:43:22.367Z,14.43
2023-01-11T21:47:25.101Z,9.75
2023-01-11T21:51:29.831Z,15.57
2023-01-11T21:55:32.821Z,14.13
2023-01-11T21:59:36.888Z,14.15
2023-01-11T22:07:44.936Z,15.45
2023-01-11T22:11:47.895Z,15.35
2023-01-11T22:15:52.456Z,15.80
2023-01-11T22:19:55.226Z,14.07
2023-01-11T22:24:01.199Z,22.05
2023-01-11T22:28:03.979Z,19.08
2023-01-11T22:32:08.106Z,14.35
2023-01-11T22:40:15.392Z,15.02
2023-01-11T22:44:19.688Z,12.52
2023-01-11T22:48:32.509Z,13.05
2023-01-11T22:52:36.163Z,26.50
2023-01-11T22:56:38.943Z,14.35
2023-01-11T23:00:41.754Z,14.48
2023-01-11T23:04:45.939Z,18.02
2023-01-11T23:13:14.889Z,16.73
2023-01-11T23:17:19.084Z,19.42
2023-01-11T23:21:24.384Z,10.80
2023-01-11T23:25:27.157Z,15.43
2023-01-11T23:29:30.038Z,15.52
2023-01-11T23:33:32.923Z,21.27
2023-01-11T23:37:37.055Z,17.02
2023-01-11T23:41:57.127Z,18.77
2023-01-11T23:46:24.286Z,16.40
2023-01-11T23:50:27.257Z,18.83
2023-01-11T23:54:32.724Z,18.17
2023-01-11T23:58:35.664Z,11.40
